Archiv-/Tagesdaten

--Timestamp---	Temp	Chill	HIndex	Humid	Dewpt	 Wind 	HiWind	WindDir	Rain 	Barom	Solar	 ET  	 UV 
--------------	----	-----	------	-----	-----	------	------	-------	-----	-----	-----	-----	----
20101104 00:00	10.2	10.2	10.2	81	7.1	5	10	225	0.0	1022.8	0	0.025	0.0
20101104 00:05	10.3	10.3	10.3	81	7.2	5	8	225	0.0	1022.7	0	0.000	0.0
20101104 00:10	10.4	10.4	10.4	80	7.1	5	11	270	0.0	1022.8	0	0.000	0.0
20101104 00:15	10.6	10.6	10.6	80	7.2	6	11	270	0.0	1022.7	0	0.000	0.0
20101104 00:20	10.7	10.7	10.7	79	7.2	8	16	270	0.0	1022.7	0	0.000	0.0
20101104 00:25	10.8	10.8	10.8	79	7.3	8	14	270	0.0	1022.7	0	0.000	0.0
20101104 00:30	11.0	11.0	11.0	79	7.5	8	16	270	0.0	1022.8	0	0.000	0.0
20101104 00:35	11.1	11.1	11.1	78	7.4	8	13	248	0.0	1022.7	0	0.000	0.0
20101104 00:40	11.1	11.1	11.1	78	7.4	8	16	270	0.0	1022.8	0	0.000	0.0
20101104 00:45	11.2	11.2	11.2	78	7.5	8	14	270	0.0	1022.8	0	0.000	0.0
20101104 00:50	11.2	11.2	11.2	78	7.5	8	18	248	0.0	1022.9	0	0.000	0.0
20101104 00:55	11.2	11.2	11.2	78	7.5	8	16	270	0.0	1022.8	0	0.000	0.0
20101104 01:00	11.2	11.2	11.2	78	7.5	8	14	248	0.0	1022.7	0	0.025	0.0
20101104 01:05	11.2	11.2	11.2	78	7.5	8	18	248	0.0	1022.8	0	0.000	0.0
20101104 01:10	11.2	11.2	11.2	78	7.5	8	16	270	0.0	1022.8	0	0.000	0.0
20101104 01:15	11.2	11.2	11.2	78	7.5	6	11	270	0.0	1022.9	0	0.000	0.0
20101104 01:20	11.2	11.2	11.2	78	7.5	8	18	248	0.0	1022.8	0	0.000	0.0
20101104 01:25	11.2	11.2	11.2	78	7.5	10	18	248	0.0	1022.9	0	0.000	0.0
20101104 01:30	11.2	11.2	11.2	78	7.5	10	19	270	0.0	1022.9	0	0.000	0.0
20101104 01:35	11.3	11.3	11.3	78	7.6	10	24	248	0.0	1023.0	0	0.000	0.0
20101104 01:40	11.3	11.3	11.3	78	7.6	8	16	270	0.0	1023.2	0	0.000	0.0
20101104 01:45	11.4	11.4	11.4	78	7.7	11	23	248	0.0	1023.2	0	0.000	0.0
20101104 01:50	11.5	11.5	11.5	78	7.8	10	23	270	0.0	1023.1	0	0.000	0.0
20101104 01:55	11.6	11.6	11.6	77	7.7	14	24	270	0.0	1023.2	0	0.000	0.0
20101104 02:00	11.7	11.7	11.7	77	7.8	13	23	270	0.0	1023.2	0	0.025	0.0
20101104 02:05	11.7	11.7	11.7	77	7.8	13	27	270	0.0	1023.3	0	0.000	0.0
20101104 02:10	11.8	11.8	11.8	77	7.9	14	23	248	0.0	1023.3	0	0.000	0.0
20101104 02:15	11.8	11.8	11.8	77	7.9	13	23	248	0.0	1023.3	0	0.000	0.0
20101104 02:20	11.8	11.8	11.8	77	7.9	13	21	248	0.0	1023.5	0	0.000	0.0
20101104 02:25	11.9	11.9	11.9	76	7.8	13	24	248	0.0	1023.5	0	0.000	0.0
20101104 02:30	12.0	12.0	12.0	76	7.9	14	31	270	0.0	1023.3	0	0.000	0.0
20101104 02:35	12.1	12.1	12.1	76	8.0	14	24	248	0.0	1023.4	0	0.000	0.0
20101104 02:40	12.1	12.1	12.1	76	8.0	14	26	248	0.0	1023.4	0	0.000	0.0
20101104 02:45	12.1	12.1	12.1	76	8.0	18	29	248	0.0	1023.4	0	0.000	0.0
20101104 02:50	12.2	12.2	12.2	76	8.1	18	32	248	0.0	1023.4	0	0.000	0.0
20101104 02:55	12.3	12.3	12.3	75	8.0	16	34	270	0.0	1023.4	0	0.000	0.0
20101104 03:00	12.3	12.3	12.3	75	8.0	16	29	248	0.0	1023.4	0	0.051	0.0
20101104 03:05	12.3	12.3	12.3	76	8.2	16	29	270	0.0	1023.6	0	0.000	0.0
20101104 03:10	12.3	12.3	12.3	76	8.2	16	26	248	0.0	1023.6	0	0.000	0.0
20101104 03:15	12.3	12.3	12.3	76	8.2	16	27	270	0.0	1023.5	0	0.000	0.0
20101104 03:20	12.4	12.4	12.4	76	8.3	14	23	248	0.0	1023.5	0	0.000	0.0
20101104 03:25	12.4	12.4	12.4	76	8.3	16	24	248	0.0	1023.7	0	0.000	0.0
20101104 03:30	12.4	12.4	12.4	76	8.3	13	24	248	0.0	1023.8	0	0.000	0.0
20101104 03:35	12.4	12.4	12.4	76	8.3	13	26	270	0.0	1023.8	0	0.000	0.0
20101104 03:40	12.4	12.4	12.4	76	8.3	13	23	248	0.0	1023.9	0	0.000	0.0
20101104 03:45	12.4	12.4	12.4	76	8.3	14	24	270	0.0	1023.9	0	0.000	0.0
20101104 03:50	12.4	12.4	12.4	76	8.3	14	26	270	0.0	1024.0	0	0.000	0.0
20101104 03:55	12.4	12.4	12.4	76	8.3	16	26	270	0.0	1024.1	0	0.000	0.0
20101104 04:00	12.5	12.5	12.5	75	8.2	16	26	248	0.0	1024.0	0	0.051	0.0
20101104 04:05	12.5	12.5	12.5	75	8.2	14	26	248	0.0	1024.1	0	0.000	0.0
20101104 04:10	12.6	12.6	12.6	75	8.2	16	31	270	0.0	1024.2	0	0.000	0.0
20101104 04:15	12.6	12.6	12.6	74	8.0	13	24	270	0.0	1024.1	0	0.000	0.0
20101104 04:20	12.6	12.6	12.6	74	8.1	18	29	248	0.0	1024.1	0	0.000	0.0
20101104 04:25	12.6	12.6	12.6	74	8.1	16	27	270	0.0	1024.1	0	0.000	0.0
20101104 04:30	12.7	12.7	12.7	74	8.2	16	26	248	0.0	1024.2	0	0.000	0.0
20101104 04:35	12.7	12.7	12.7	74	8.2	13	27	248	0.0	1024.1	0	0.000	0.0
20101104 04:40	12.7	12.7	12.7	74	8.2	13	26	270	0.0	1024.2	0	0.000	0.0
20101104 04:45	12.6	12.6	12.6	74	8.1	13	23	248	0.0	1024.1	0	0.000	0.0
20101104 04:50	12.6	12.6	12.6	74	8.1	13	27	270	0.0	1024.1	0	0.000	0.0
20101104 04:55	12.7	12.7	12.7	74	8.2	14	24	248	0.0	1024.1	0	0.000	0.0
20101104 05:00	12.7	12.7	12.7	74	8.2	14	26	248	0.0	1024.1	0	0.051	0.0
20101104 05:05	12.7	12.7	12.7	74	8.2	14	24	248	0.0	1024.3	0	0.000	0.0
20101104 05:10	12.7	12.7	12.7	74	8.2	14	27	270	0.0	1024.2	0	0.000	0.0
20101104 05:15	12.7	12.7	12.7	74	8.2	14	26	248	0.0	1024.2	0	0.000	0.0
20101104 05:20	12.6	12.6	12.6	74	8.1	16	26	248	0.0	1024.3	0	0.000	0.0
20101104 05:25	12.6	12.6	12.6	74	8.1	14	21	248	0.0	1024.4	0	0.000	0.0
20101104 05:30	12.6	12.6	12.6	74	8.0	14	26	248	0.0	1024.4	0	0.000	0.0
20101104 05:35	12.6	12.6	12.6	74	8.0	13	26	270	0.0	1024.3	0	0.000	0.0
20101104 05:40	12.6	12.6	12.6	74	8.0	14	24	248	0.0	1024.2	0	0.000	0.0
20101104 05:45	12.6	12.6	12.6	74	8.1	16	26	248	0.0	1024.3	0	0.000	0.0
20101104 05:50	12.7	12.7	12.7	73	8.0	16	29	225	0.0	1024.2	0	0.000	0.0
20101104 05:55	12.7	12.7	12.7	73	8.0	16	26	248	0.0	1024.2	0	0.000	0.0
20101104 06:00	12.6	12.6	12.6	73	7.8	14	29	248	0.0	1024.2	0	0.051	0.0
20101104 06:05	12.6	12.6	12.6	74	8.0	23	39	248	0.0	1024.4	0	0.000	0.0
20101104 06:10	12.5	12.5	12.5	74	8.0	18	31	248	0.0	1024.5	0	0.000	0.0
20101104 06:15	12.3	12.3	12.3	75	8.0	16	26	248	0.0	1024.5	0	0.000	0.0
20101104 06:20	12.2	12.2	12.2	75	7.9	13	24	248	0.0	1024.7	0	0.000	0.0
20101104 06:25	12.2	12.2	12.2	75	7.9	14	26	248	0.0	1024.7	0	0.000	0.0
20101104 06:30	12.1	12.1	12.1	76	8.0	13	24	248	0.0	1024.8	0	0.000	0.0
20101104 06:35	11.9	11.9	11.9	76	7.8	14	23	248	0.0	1024.8	0	0.000	0.0
20101104 06:40	11.9	11.9	11.9	77	8.0	14	26	248	0.0	1024.9	0	0.000	0.0
20101104 06:45	11.9	11.9	11.9	77	8.0	13	24	248	0.0	1025.0	0	0.000	0.0
20101104 06:50	11.9	11.9	11.9	77	8.0	11	18	270	0.0	1025.1	0	0.000	0.0
20101104 06:55	11.9	11.9	11.9	77	8.0	11	19	270	0.0	1025.2	0	0.000	0.0
20101104 07:00	11.8	11.8	11.8	77	7.9	10	19	248	0.0	1025.2	0	0.051	0.0
20101104 07:05	11.7	11.7	11.7	77	7.8	11	19	270	0.0	1025.4	0	0.000	0.0
20101104 07:10	11.7	11.7	11.7	78	8.0	11	23	248	0.0	1025.5	0	0.000	0.0
20101104 07:15	11.7	11.7	11.7	78	8.0	10	18	248	0.0	1025.7	5	0.000	0.0
20101104 07:20	11.7	11.7	11.7	78	8.0	13	21	248	0.0	1025.7	10	0.000	0.0
20101104 07:25	11.8	11.8	11.8	78	8.1	13	23	248	0.0	1025.8	12	0.000	0.0
20101104 07:30	11.8	11.8	11.8	77	7.9	13	23	248	0.0	1025.9	17	0.000	0.0
20101104 07:35	11.8	11.8	11.8	77	7.9	14	26	248	0.0	1025.9	21	0.000	0.0
20101104 07:40	11.8	11.8	11.8	77	7.9	16	26	248	0.0	1025.9	20	0.000	0.0
20101104 07:45	11.9	11.9	11.9	76	7.8	14	26	248	0.0	1025.9	19	0.000	0.0
20101104 07:50	12.0	12.0	12.0	76	7.9	18	29	248	0.0	1025.6	21	0.000	0.0
20101104 07:55	12.2	12.2	12.2	76	8.1	18	29	248	0.0	1025.5	28	0.000	0.0
20101104 08:00	12.3	12.3	12.3	75	8.0	19	35	248	0.0	1025.5	32	0.051	0.0
20101104 08:05	12.4	12.4	12.4	74	7.9	19	34	248	0.0	1025.7	36	0.000	0.0
20101104 08:10	12.6	12.6	12.6	74	8.0	18	37	248	0.0	1025.7	35	0.000	0.0
20101104 08:15	12.6	12.6	12.6	74	8.1	18	27	248	0.0	1025.8	66	0.000	0.0
20101104 08:20	12.8	12.8	12.8	74	8.3	18	27	248	0.0	1025.9	65	0.000	0.0
20101104 08:25	12.9	12.9	12.9	73	8.2	18	29	248	0.0	1026.0	84	0.000	0.0
20101104 08:30	13.2	13.2	13.2	73	8.4	16	27	248	0.0	1025.9	88	0.000	0.0
20101104 08:35	13.4	13.4	13.4	71	8.2	19	35	248	0.0	1025.9	95	0.000	0.0
20101104 08:40	13.6	13.6	13.6	71	8.4	19	31	248	0.0	1026.1	93	0.000	0.0
20101104 08:45	13.7	13.7	13.7	70	8.3	19	32	270	0.0	1025.9	63	0.000	0.0
20101104 08:50	13.7	13.7	13.7	70	8.3	21	40	248	0.0	1025.9	45	0.000	0.0
20101104 08:55	13.7	13.7	13.7	70	8.3	19	35	248	0.0	1026.2	45	0.000	0.0
20101104 09:00	13.6	13.6	13.6	70	8.2	16	29	270	0.0	1026.1	50	0.102	0.0
20101104 09:05	13.6	13.6	13.6	71	8.4	18	29	270	0.0	1026.2	53	0.000	0.0
20101104 09:10	13.7	13.7	13.7	70	8.3	18	27	248	0.0	1026.3	53	0.000	0.0
20101104 09:15	13.8	13.8	13.8	70	8.4	18	35	270	0.0	1026.2	53	0.000	0.0
20101104 09:20	13.9	13.9	13.9	70	8.5	18	34	270	0.0	1026.3	58	0.000	0.6
20101104 09:25	13.9	13.9	13.9	69	8.3	16	27	270	0.0	1026.2	65	0.000	0.7
20101104 09:30	14.1	14.1	14.1	69	8.5	19	29	248	0.0	1026.1	69	0.000	0.7
20101104 09:35	14.2	14.2	14.2	69	8.6	18	29	270	0.0	1026.2	78	0.000	0.8
20101104 09:40	14.3	14.3	14.3	68	8.5	21	40	248	0.0	1026.2	105	0.000	0.8
20101104 09:45	14.5	14.5	14.5	68	8.7	21	35	270	0.0	1026.2	106	0.000	0.7
20101104 09:50	14.6	14.6	14.6	68	8.7	23	35	270	0.0	1026.1	86	0.000	0.7
20101104 09:55	14.5	14.5	14.5	68	8.7	19	34	270	0.0	1026.1	85	0.000	0.7
20101104 10:00	14.5	14.5	14.5	68	8.7	21	35	270	0.0	1026.1	92	0.102	0.8
20101104 10:05	14.5	14.5	14.5	69	8.9	19	32	270	0.0	1026.1	95	0.000	0.9
20101104 10:10	14.6	14.6	14.6	68	8.7	21	40	248	0.0	1026.1	100	0.000	1.0
20101104 10:15	14.6	14.6	14.6	68	8.8	21	37	248	0.0	1026.1	100	0.000	1.0
20101104 10:20	14.8	14.8	14.8	68	8.9	21	37	270	0.0	1026.0	100	0.000	1.0
20101104 10:25	15.0	15.0	15.0	68	9.1	18	35	270	0.0	1025.9	93	0.000	1.1
20101104 10:30	15.0	15.0	15.0	68	9.1	21	31	270	0.0	1025.9	97	0.000	1.1
20101104 10:35	15.1	15.1	15.1	67	9.0	21	45	270	0.0	1026.2	142	0.000	1.1
20101104 10:40	15.3	15.3	15.3	66	9.0	24	35	270	0.0	1026.0	251	0.000	1.3
20101104 10:45	15.4	15.4	15.4	66	9.1	18	34	270	0.0	1026.0	297	0.000	1.5
20101104 10:50	15.6	15.6	15.6	66	9.3	23	39	270	0.0	1025.9	307	0.000	1.5
20101104 10:55	15.7	15.7	15.7	65	9.2	27	40	270	0.0	1026.0	328	0.000	1.6
20101104 11:00	15.8	15.8	15.8	66	9.5	21	34	270	0.0	1025.7	336	0.178	1.6
20101104 11:05	16.0	16.0	16.0	65	9.4	19	34	270	0.0	1025.8	344	0.000	1.7
20101104 11:10	16.2	16.2	16.2	64	9.4	23	47	270	0.0	1025.8	373	0.000	1.7
20101104 11:15	16.3	16.3	16.3	64	9.5	24	39	270	0.0	1025.8	367	0.000	1.8
20101104 11:20	16.4	16.4	16.4	63	9.4	21	34	270	0.0	1025.6	370	0.000	1.8
20101104 11:25	16.6	16.6	16.6	64	9.8	21	34	270	0.0	1025.6	379	0.000	1.8
20101104 11:30	16.7	16.7	16.7	63	9.6	24	48	270	0.0	1025.4	402	0.000	1.9
20101104 11:35	16.8	16.8	16.8	63	9.7	18	31	270	0.0	1025.4	393	0.000	1.9
20101104 11:40	17.0	17.0	17.0	63	9.9	19	32	270	0.0	1025.4	394	0.000	2.0
20101104 11:45	17.2	17.2	17.2	63	10.1	19	35	270	0.0	1025.3	406	0.000	2.0
20101104 11:50	17.3	17.3	17.3	61	9.7	23	37	248	0.0	1025.2	400	0.000	2.0
20101104 11:55	17.3	17.3	17.3	61	9.7	19	32	248	0.0	1025.2	409	0.000	2.0
20101104 12:00	17.3	17.3	17.3	60	9.5	23	43	270	0.0	1025.3	389	0.305	2.0
20101104 12:05	17.3	17.3	17.3	61	9.7	23	34	270	0.0	1025.2	391	0.000	2.0
20101104 12:10	17.4	17.4	17.4	60	9.6	26	37	270	0.0	1025.2	382	0.000	2.0
20101104 12:15	17.3	17.3	17.3	60	9.5	26	43	270	0.0	1025.2	391	0.000	2.0
20101104 12:20	17.4	17.4	17.4	61	9.8	23	35	270	0.0	1025.3	411	0.000	2.0
20101104 12:25	17.4	17.4	17.4	60	9.6	24	37	270	0.0	1025.2	430	0.000	2.0
20101104 12:30	17.4	17.4	17.4	60	9.6	24	42	270	0.0	1025.0	385	0.000	1.9
20101104 12:35	17.4	17.4	17.4	61	9.8	24	40	270	0.0	1025.2	294	0.000	1.7
20101104 12:40	17.3	17.3	17.3	61	9.7	23	39	270	0.0	1025.1	276	0.000	1.6
20101104 12:45	17.2	17.2	17.2	61	9.6	24	37	270	0.0	1025.0	255	0.000	1.5
20101104 12:50	17.2	17.2	17.2	61	9.6	26	45	270	0.0	1025.0	253	0.000	1.5
20101104 12:55	17.1	17.1	17.1	61	9.5	26	40	270	0.0	1024.9	260	0.000	1.5
20101104 13:00	17.1	17.1	17.1	61	9.5	27	47	270	0.0	1024.8	275	0.305	1.5
20101104 13:05	17.1	17.1	17.1	61	9.5	26	45	270	0.0	1025.0	278	0.000	1.5
20101104 13:10	17.3	17.3	17.3	61	9.7	21	34	270	0.0	1024.8	338	0.000	1.5
20101104 13:15	17.5	17.5	17.5	61	9.9	19	39	270	0.0	1024.8	296	0.000	1.5
20101104 13:20	17.6	17.6	17.6	61	9.9	21	35	270	0.0	1024.9	269	0.000	1.4
20101104 13:25	17.5	17.5	17.5	60	9.6	24	40	270	0.0	1024.9	303	0.000	1.4
20101104 13:30	17.7	17.7	17.7	60	9.8	21	31	270	0.0	1024.8	357	0.000	1.5
20101104 13:35	17.8	17.8	17.8	60	9.9	19	37	270	0.0	1024.8	333	0.000	1.4
20101104 13:40	17.8	17.8	17.8	59	9.7	23	35	270	0.0	1024.8	338	0.000	1.4
20101104 13:45	17.8	17.8	17.8	59	9.7	23	32	270	0.0	1024.8	257	0.000	1.3
20101104 13:50	17.7	17.7	17.7	59	9.6	21	34	270	0.0	1024.8	285	0.000	1.2
20101104 13:55	17.6	17.6	17.6	59	9.5	24	39	270	0.0	1024.8	210	0.000	1.0
20101104 14:00	17.4	17.4	17.4	60	9.6	23	39	270	0.0	1024.8	192	0.279	1.0
20101104 14:05	17.4	17.4	17.4	60	9.5	19	42	270	0.0	1024.9	152	0.000	0.9
20101104 14:10	17.3	17.3	17.3	60	9.5	23	39	270	0.0	1025.1	212	0.000	1.0
20101104 14:15	17.3	17.3	17.3	61	9.7	26	39	270	0.0	1024.8	189	0.000	0.9
20101104 14:20	17.3	17.3	17.3	60	9.5	24	40	270	0.0	1024.9	203	0.000	0.9
20101104 14:25	17.4	17.4	17.4	60	9.5	23	39	270	0.0	1024.8	209	0.000	0.9
20101104 14:30	17.3	17.3	17.3	59	9.2	21	37	270	0.0	1024.7	100	0.000	0.7
20101104 14:35	17.1	17.1	17.1	59	9.0	23	47	270	0.0	1024.8	135	0.000	0.7
20101104 14:40	17.2	17.2	17.2	60	9.3	21	32	270	0.0	1024.8	205	0.000	0.7
20101104 14:45	17.2	17.2	17.2	61	9.6	18	31	270	0.0	1024.8	147	0.000	0.6
20101104 14:50	17.2	17.2	17.2	61	9.6	18	29	270	0.0	1024.9	158	0.000	0.6
20101104 14:55	17.2	17.2	17.2	60	9.3	21	32	270	0.0	1025.0	163	0.000	0.6
20101104 15:00	17.2	17.2	17.2	61	9.6	19	31	270	0.0	1025.1	178	0.203	0.6
20101104 15:05	17.3	17.3	17.3	61	9.7	21	39	270	0.0	1024.9	188	0.000	0.5
20101104 15:10	17.3	17.3	17.3	61	9.7	19	31	270	0.0	1024.9	170	0.000	0.5
20101104 15:15	17.2	17.2	17.2	61	9.6	19	27	270	0.0	1024.8	157	0.000	0.4
20101104 15:20	17.2	17.2	17.2	62	9.9	14	24	270	0.0	1024.7	155	0.000	0.0
20101104 15:25	17.2	17.2	17.2	62	9.8	14	23	270	0.0	1024.6	141	0.000	0.0
20101104 15:30	17.1	17.1	17.1	61	9.5	16	31	248	0.0	1024.4	119	0.000	0.0
20101104 15:35	16.9	16.9	16.9	61	9.4	18	29	248	0.0	1024.4	85	0.000	0.0
20101104 15:40	16.9	16.9	16.9	62	9.6	16	26	270	0.0	1024.5	67	0.000	0.0
20101104 15:45	16.8	16.8	16.8	62	9.5	11	24	270	0.0	1024.5	62	0.000	0.0
20101104 15:50	16.7	16.7	16.7	63	9.6	16	27	270	0.0	1024.5	56	0.000	0.0
20101104 15:55	16.6	16.6	16.6	63	9.5	13	24	270	0.0	1024.6	51	0.000	0.0
20101104 16:00	16.5	16.5	16.5	63	9.4	13	23	270	0.0	1024.5	48	0.127	0.0
20101104 16:05	16.4	16.4	16.4	63	9.4	14	32	292	0.0	1024.7	46	0.000	0.0
20101104 16:10	16.4	16.4	16.4	63	9.3	18	31	270	0.0	1024.8	42	0.000	0.0
20101104 16:15	16.3	16.3	16.3	64	9.5	18	26	270	0.0	1024.7	38	0.000	0.0
20101104 16:20	16.3	16.3	16.3	64	9.5	14	27	292	0.0	1024.6	33	0.000	0.0
20101104 16:25	16.2	16.2	16.2	64	9.3	11	19	270	0.0	1024.6	26	0.000	0.0
20101104 16:30	16.1	16.1	16.1	65	9.5	10	18	292	0.0	1024.6	20	0.000	0.0
20101104 16:35	15.9	15.9	15.9	65	9.4	13	24	270	0.0	1024.7	15	0.000	0.0
20101104 16:40	15.9	15.9	15.9	65	9.3	13	23	292	0.0	1024.7	11	0.000	0.0
20101104 16:45	15.7	15.7	15.7	65	9.2	10	18	292	0.0	1024.9	6	0.000	0.0
20101104 16:50	15.6	15.6	15.6	66	9.3	10	19	292	0.0	1024.9	0	0.000	0.0
20101104 16:55	15.4	15.4	15.4	66	9.1	8	16	292	0.0	1025.1	0	0.000	0.0
20101104 17:00	15.4	15.4	15.4	67	9.3	8	18	292	0.0	1025.1	0	0.076	0.0
20101104 17:05	15.3	15.3	15.3	67	9.2	5	10	270	0.0	1025.1	0	0.000	0.0
20101104 17:10	15.0	15.0	15.0	68	9.1	5	10	270	0.0	1025.1	0	0.000	0.0
20101104 17:15	15.0	15.0	15.0	68	9.1	3	6	270	0.0	1025.2	0	0.000	0.0
20101104 17:20	14.7	14.7	14.7	69	9.1	3	6	270	0.0	1025.2	0	0.000	0.0
20101104 17:25	14.5	14.5	14.5	70	9.1	2	5	270	0.0	1025.3	0	0.000	0.0
20101104 17:30	14.3	14.3	14.3	70	8.9	3	5	270	0.0	1025.3	0	0.000	0.0
20101104 17:35	14.2	14.2	14.2	71	9.0	5	8	270	0.0	1025.4	0	0.000	0.0
20101104 17:40	14.1	14.1	14.1	71	8.9	5	8	270	0.0	1025.5	0	0.000	0.0
20101104 17:45	13.9	13.9	13.9	71	8.8	5	8	292	0.0	1025.5	0	0.000	0.0
20101104 17:50	13.9	13.9	13.9	72	8.9	5	8	292	0.0	1025.5	0	0.000	0.0
20101104 17:55	13.9	13.9	13.9	72	8.9	6	10	292	0.0	1025.6	0	0.000	0.0
20101104 18:00	13.9	13.9	13.9	72	8.9	6	8	292	0.0	1025.7	0	0.025	0.0
20101104 18:05	13.9	13.9	13.9	72	8.9	6	11	292	0.0	1025.8	0	0.000	0.0
20101104 18:10	13.8	13.8	13.8	73	9.1	8	14	292	0.0	1025.8	0	0.000	0.0
20101104 18:15	13.8	13.8	13.8	73	9.0	8	13	292	0.0	1025.8	0	0.000	0.0
20101104 18:20	13.7	13.7	13.7	73	9.0	6	11	292	0.0	1025.7	0	0.000	0.0
20101104 18:25	13.6	13.6	13.6	74	9.1	8	14	292	0.0	1025.8	0	0.000	0.0
20101104 18:30	13.6	13.6	13.6	74	9.0	6	10	292	0.0	1026.0	0	0.000	0.0
20101104 18:35	13.5	13.5	13.5	74	9.0	6	10	292	0.0	1026.0	0	0.000	0.0
20101104 18:40	13.4	13.4	13.4	74	8.9	6	10	270	0.0	1026.1	0	0.000	0.0
20101104 18:45	13.3	13.3	13.3	75	9.0	6	10	270	0.0	1026.1	0	0.000	0.0
20101104 18:50	13.3	13.3	13.3	75	8.9	6	10	270	0.0	1026.2	0	0.000	0.0
20101104 18:55	13.2	13.2	13.2	75	8.8	5	10	270	0.0	1026.3	0	0.000	0.0
20101104 19:00	13.1	13.1	13.1	76	8.9	6	11	270	0.0	1026.3	0	0.025	0.0
20101104 19:05	13.0	13.0	13.0	76	8.9	5	8	270	0.0	1026.3	0	0.000	0.0
20101104 19:10	12.9	12.9	12.9	76	8.8	6	10	270	0.0	1026.5	0	0.000	0.0
20101104 19:15	12.9	12.9	12.9	76	8.8	5	10	270	0.0	1026.6	0	0.000	0.0
20101104 19:20	12.8	12.8	12.8	76	8.7	5	8	270	0.0	1026.7	0	0.000	0.0
20101104 19:25	12.8	12.8	12.8	77	8.8	5	8	270	0.0	1026.7	0	0.000	0.0
20101104 19:30	12.7	12.7	12.7	77	8.8	6	10	270	0.0	1026.7	0	0.000	0.0
20101104 19:35	12.7	12.7	12.7	77	8.7	5	8	270	0.0	1026.7	0	0.000	0.0
20101104 19:40	12.6	12.6	12.6	77	8.6	5	10	248	0.0	1026.6	0	0.000	0.0
20101104 19:45	12.6	12.6	12.6	77	8.6	5	8	248	0.0	1026.7	0	0.000	0.0
20101104 19:50	12.5	12.5	12.5	78	8.8	5	8	270	0.0	1026.7	0	0.000	0.0
20101104 19:55	12.4	12.4	12.4	78	8.7	5	8	270	0.0	1026.6	0	0.000	0.0
20101104 20:00	12.4	12.4	12.4	78	8.7	5	11	270	0.0	1026.5	0	0.025	0.0
20101104 20:05	12.4	12.4	12.4	78	8.7	5	8	248	0.0	1026.4	0	0.000	0.0
20101104 20:10	12.3	12.3	12.3	78	8.6	5	10	270	0.0	1026.5	0	0.000	0.0
20101104 20:15	12.3	12.3	12.3	79	8.8	5	8	270	0.0	1026.5	0	0.000	0.0
20101104 20:20	12.3	12.3	12.3	79	8.7	5	11	270	0.0	1026.5	0	0.000	0.0
20101104 20:25	12.3	12.3	12.3	79	8.7	5	10	248	0.0	1026.5	0	0.000	0.0
20101104 20:30	12.3	12.3	12.3	79	8.7	5	8	248	0.0	1026.4	0	0.000	0.0
20101104 20:35	12.2	12.2	12.2	79	8.7	5	8	248	0.0	1026.4	0	0.000	0.0
20101104 20:40	12.2	12.2	12.2	80	8.9	6	11	270	0.0	1026.4	0	0.000	0.0
20101104 20:45	12.2	12.2	12.2	80	8.8	5	8	270	0.0	1026.4	0	0.000	0.0
20101104 20:50	12.2	12.2	12.2	80	8.8	5	8	270	0.0	1026.4	0	0.000	0.0
20101104 20:55	12.2	12.2	12.2	80	8.8	6	10	248	0.0	1026.5	0	0.000	0.0
20101104 21:00	12.2	12.2	12.2	80	8.8	6	8	248	0.0	1026.6	0	0.025	0.0
20101104 21:05	12.2	12.2	12.2	80	8.8	5	8	248	0.0	1026.5	0	0.000	0.0
20101104 21:10	12.2	12.2	12.2	80	8.8	6	11	248	0.0	1026.5	0	0.000	0.0
20101104 21:15	12.2	12.2	12.2	80	8.9	6	10	248	0.0	1026.6	0	0.000	0.0
20101104 21:20	12.2	12.2	12.2	80	8.8	6	11	270	0.0	1026.6	0	0.000	0.0
20101104 21:25	12.1	12.1	12.1	80	8.8	6	14	270	0.0	1026.6	0	0.000	0.0
20101104 21:30	12.1	12.1	12.1	81	8.9	6	11	248	0.0	1026.7	0	0.000	0.0
20101104 21:35	12.0	12.0	12.0	81	8.8	6	16	248	0.0	1026.7	0	0.000	0.0
20101104 21:40	11.9	11.9	11.9	81	8.8	5	11	248	0.0	1026.9	0	0.000	0.0
20101104 21:45	11.8	11.8	11.8	82	8.9	5	11	248	0.0	1026.9	0	0.000	0.0
20101104 21:50	11.8	11.8	11.8	82	8.9	6	10	248	0.0	1026.8	0	0.000	0.0
20101104 21:55	11.7	11.7	11.7	81	8.5	5	14	225	0.0	1026.8	0	0.000	0.0
20101104 22:00	11.4	11.4	11.4	81	8.2	3	6	225	0.0	1026.8	0	0.025	0.0
20101104 22:05	11.2	11.2	11.2	82	8.2	3	8	225	0.0	1026.7	0	0.000	0.0
20101104 22:10	11.0	11.0	11.0	83	8.2	5	8	202	0.0	1026.7	0	0.000	0.0
20101104 22:15	10.8	10.8	10.8	83	8.1	6	11	202	0.0	1026.7	0	0.000	0.0
20101104 22:20	10.8	10.8	10.8	83	8.0	6	11	202	0.0	1026.7	0	0.000	0.0
20101104 22:25	10.7	10.7	10.7	84	8.1	5	10	225	0.0	1026.6	0	0.000	0.0
20101104 22:30	10.7	10.7	10.7	84	8.1	6	8	225	0.0	1026.6	0	0.000	0.0
20101104 22:35	10.8	10.8	10.8	85	8.4	5	8	248	0.0	1026.5	0	0.000	0.0
20101104 22:40	10.8	10.8	10.8	84	8.2	6	10	248	0.0	1026.5	0	0.000	0.0
20101104 22:45	10.9	10.9	10.9	84	8.3	5	8	248	0.0	1026.5	0	0.000	0.0
20101104 22:50	10.9	10.9	10.9	84	8.3	5	8	248	0.0	1026.6	0	0.000	0.0
20101104 22:55	10.9	10.9	10.9	84	8.3	5	8	248	0.0	1026.6	0	0.000	0.0
20101104 23:00	10.9	10.9	10.9	84	8.3	5	8	248	0.0	1026.6	0	0.025	0.0
20101104 23:05	10.8	10.8	10.8	84	8.2	6	10	248	0.0	1026.6	0	0.000	0.0
20101104 23:10	10.7	10.7	10.7	84	8.1	6	10	248	0.0	1026.5	0	0.000	0.0
20101104 23:15	10.6	10.6	10.6	85	8.2	6	8	248	0.0	1026.5	0	0.000	0.0
20101104 23:20	10.5	10.5	10.5	85	8.1	6	10	202	0.0	1026.5	0	0.000	0.0
20101104 23:25	10.3	10.3	10.3	85	7.9	8	14	202	0.0	1026.4	0	0.000	0.0
20101104 23:30	10.3	10.3	10.3	85	7.9	8	14	225	0.0	1026.4	0	0.000	0.0
20101104 23:35	10.3	10.3	10.3	86	8.1	8	11	225	0.0	1026.4	0	0.000	0.0
20101104 23:40	10.5	10.5	10.5	86	8.3	8	13	248	0.0	1026.5	0	0.000	0.0
20101104 23:45	10.7	10.7	10.7	86	8.4	5	11	225	0.0	1026.5	0	0.000	0.0
20101104 23:50	10.7	10.7	10.7	85	8.3	5	10	225	0.0	1026.4	0	0.000	0.0
20101104 23:55	10.5	10.5	10.5	84	7.9	5	10	225	0.0	1026.5	0	0.000	0.0



Please note the license to use and transfer of this data:
http://creativecommons.org/licenses/by-nc-sa/3.0/deed.en

Bitte beachten sie die Lizenz zur Verwertung und Weitergabe der Daten:
http://creativecommons.org/licenses/by-nc-sa/3.0/deed.de

zurück zur Übersicht der Archivdaten (Monats und Tagesdaten)

Cookies helfen bei der Bereitstellung von Inhalten. Durch die Nutzung dieser Seiten erklärst du dich damit einverstanden, dass Cookies auf deinem Rechner gespeichert werden. Weitere Information